Time;durP1;ratioP1;P1;durP2;ratioP2;P2;SDS_P1;SDS_P2;PMS_P1;PMS_P2;Temp;Humidity;BMP_temperature;BMP_pressure;BME280_temperature;BME280_humidity;BME280_pressure;Samples;Min_cycle;Max_cycle;Signal;HPM_P1;HPM_P2
2023/04/01 00:01:54;;;;;;;11.10;5.57;;;;;;;10.52;100.00;99571.47;5049096;28;20682;-67
2023/04/01 00:04:20;;;;;;;8.57;5.73;;;;;;;10.51;100.00;99567.22;5049858;28;20237;-67
2023/04/01 00:06:47;;;;;;;11.27;5.43;;;;;;;10.50;100.00;99563.78;5049801;28;20205;-66
2023/04/01 00:09:13;;;;;;;12.43;5.23;;;;;;;10.53;100.00;99565.50;5047848;28;20213;-67
2023/04/01 00:11:39;;;;;;;10.13;5.30;;;;;;;10.52;100.00;99566.34;5048989;28;20850;-66
2023/04/01 00:14:06;;;;;;;11.70;4.73;;;;;;;10.52;100.00;99566.34;5049507;28;20271;-66
2023/04/01 00:16:31;;;;;;;7.37;5.07;;;;;;;10.51;100.00;99560.38;5048845;28;20197;-66
2023/04/01 00:18:56;;;;;;;10.70;5.13;;;;;;;10.48;100.00;99562.97;5049967;28;20192;-67
2023/04/01 00:21:22;;;;;;;9.73;4.50;;;;;;;10.48;100.00;99569.78;5048282;28;20221;-66
2023/04/01 00:23:49;;;;;;;10.27;5.37;;;;;;;10.47;100.00;99568.91;5045172;28;20220;-66
2023/04/01 00:26:18;;;;;;;8.40;5.03;;;;;;;10.46;100.00;99567.22;5048610;28;20280;-67
2023/04/01 00:28:45;;;;;;;8.57;4.60;;;;;;;10.45;100.00;99574.88;5049783;28;20216;-66
2023/04/01 00:31:14;;;;;;;8.40;4.93;;;;;;;10.43;100.00;99569.78;5046990;28;20233;-67
2023/04/01 00:33:41;;;;;;;9.07;4.90;;;;;;;10.40;100.00;99572.34;5031487;28;20256;-66
2023/04/01 00:36:13;;;;;;;10.67;5.83;;;;;;;10.34;100.00;99567.25;5048139;28;20217;-66
2023/04/01 00:38:41;;;;;;;11.47;4.90;;;;;;;10.37;100.00;99572.34;5045271;28;20206;-66
2023/04/01 00:41:06;;;;;;;12.73;6.00;;;;;;;10.37;100.00;99562.09;5027704;28;20190;-66
2023/04/01 00:43:33;;;;;;;9.70;5.53;;;;;;;10.37;100.00;99561.25;5031033;28;20217;-67
2023/04/01 00:45:59;;;;;;;15.27;5.30;;;;;;;10.36;100.00;99564.66;5029143;28;20190;-66
2023/04/01 00:48:31;;;;;;;12.47;4.63;;;;;;;10.38;100.00;99568.09;5047223;28;20186;-66
2023/04/01 00:51:06;;;;;;;8.10;5.07;;;;;;;10.36;100.00;99564.66;5030018;28;20276;-66
2023/04/01 00:53:34;;;;;;;9.57;4.60;;;;;;;10.33;100.00;99557.84;5048122;28;20213;-67
2023/04/01 00:56:10;;;;;;;8.03;4.90;;;;;;;10.30;100.00;99562.97;5031177;28;20182;-66
2023/04/01 00:58:40;;;;;;;8.30;5.00;;;;;;;10.31;100.00;99562.13;5028919;28;20204;-67
2023/04/01 01:01:07;;;;;;;7.70;5.23;;;;;;;10.30;100.00;99557.84;5011517;28;20655;-66
2023/04/01 01:03:34;;;;;;;8.27;4.97;;;;;;;10.27;100.00;99568.06;5045707;28;20658;-66
2023/04/01 01:06:21;;;;;;;8.13;4.70;;;;;;;10.33;100.00;99562.94;5030466;28;20217;-66
2023/04/01 01:09:00;;;;;;;8.67;4.93;;;;;;;10.32;100.00;99571.47;5028919;28;20182;-66
2023/04/01 01:11:39;;;;;;;13.00;5.57;;;;;;;10.29;100.00;99575.75;5028335;28;20236;-66
2023/04/01 01:14:20;;;;;;;9.53;5.33;;;;;;;10.26;100.00;99568.94;5025844;28;20291;-67
2023/04/01 01:16:59;;;;;;;8.20;5.07;;;;;;;10.25;100.00;99566.38;5030697;28;20242;-67
2023/04/01 01:19:47;;;;;;;8.23;5.00;;;;;;;10.26;100.00;99566.38;5049174;28;20255;-66
2023/04/01 01:22:16;;;;;;;9.60;4.93;;;;;;;10.27;100.00;99564.69;5030713;28;20196;-66
2023/04/01 01:25:15;;;;;;;10.10;5.03;;;;;;;10.27;100.00;99570.63;5045164;28;20590;-66
2023/04/01 01:27:47;;;;;;;8.70;5.27;;;;;;;10.25;100.00;99569.78;5030532;28;20204;-66
2023/04/01 01:30:30;;;;;;;8.53;4.80;;;;;;;10.28;100.00;99574.06;5027186;28;20217;-66
2023/04/01 01:33:31;;;;;;;9.70;5.20;;;;;;;10.25;100.00;99574.06;5043846;28;20556;-66
2023/04/01 01:35:59;;;;;;;10.10;5.03;;;;;;;10.26;100.00;99566.38;4970504;28;20195;-66
2023/04/01 01:38:28;;;;;;;10.07;4.70;;;;;;;10.25;100.00;99569.78;5019255;28;20682;-67
2023/04/01 01:40:59;;;;;;;11.70;5.20;;;;;;;10.23;100.00;99563.81;5031010;28;20259;-66
2023/04/01 01:43:30;;;;;;;8.97;4.87;;;;;;;10.25;100.00;99569.78;5029075;28;20209;-66
2023/04/01 01:46:01;;;;;;;8.80;5.10;;;;;;;10.24;100.00;99568.09;5030873;28;20193;-66
2023/04/01 01:48:29;;;;;;;11.00;4.80;;;;;;;10.22;100.00;99572.34;5028077;28;20194;-66
2023/04/01 01:50:55;;;;;;;6.87;4.93;;;;;;;10.20;100.00;99568.09;5029113;28;20219;-66
2023/04/01 01:53:21;;;;;;;6.83;4.67;;;;;;;10.19;100.00;99574.88;5030250;28;20193;-66
2023/04/01 01:55:47;;;;;;;8.97;4.40;;;;;;;10.19;100.00;99576.63;5030243;28;20296;-66
2023/04/01 01:58:19;;;;;;;9.37;4.53;;;;;;;10.14;100.00;99574.03;5031023;28;20626;-66
2023/04/01 02:00:52;;;;;;;8.47;4.90;;;;;;;10.15;100.00;99575.78;5028182;28;20770;-66
2023/04/01 02:03:21;;;;;;;9.47;4.60;;;;;;;10.15;100.00;99580.88;5026497;28;20186;-67
2023/04/01 02:05:47;;;;;;;11.00;4.97;;;;;;;10.16;100.00;99582.59;5030399;28;20288;-65
2023/04/01 02:08:19;;;;;;;9.67;4.13;;;;;;;10.15;100.00;99575.78;5030175;28;20737;-66
2023/04/01 02:10:54;;;;;;;13.17;4.60;;;;;;;10.11;100.00;99571.50;5026962;28;20575;-67
2023/04/01 02:13:37;;;;;;;10.03;4.30;;;;;;;10.09;100.00;99575.75;5024121;28;20575;-67
2023/04/01 02:16:11;;;;;;;7.33;4.50;;;;;;;10.08;100.00;99578.28;5026542;28;20197;-67
2023/04/01 02:18:38;;;;;;;10.27;4.67;;;;;;;10.09;100.00;99578.31;5025803;28;20197;-66
2023/04/01 02:21:07;;;;;;;8.07;4.80;;;;;;;10.12;100.00;99586.00;5027602;28;20186;-66
2023/04/01 02:23:36;;;;;;;10.77;4.43;;;;;;;10.10;100.00;99584.28;5028876;28;20209;-66
2023/04/01 02:26:05;;;;;;;10.53;4.60;;;;;;;10.12;100.00;99587.69;5013279;28;20208;-66
2023/04/01 02:28:32;;;;;;;10.60;4.70;;;;;;;10.12;100.00;99580.00;5030202;28;20197;-66
2023/04/01 02:31:00;;;;;;;11.10;5.00;;;;;;;10.12;100.00;99588.53;5029991;28;20213;-66
2023/04/01 02:33:27;;;;;;;5.87;3.97;;;;;;;10.14;100.00;99583.44;5029324;28;20223;-66
2023/04/01 02:35:53;;;;;;;10.37;4.73;;;;;;;10.11;100.00;99586.84;5046423;28;20671;-66
2023/04/01 02:38:18;;;;;;;11.37;5.27;;;;;;;10.09;100.00;99587.69;5036426;28;20205;-66
2023/04/01 02:40:50;;;;;;;8.43;4.20;;;;;;;10.09;100.00;99585.97;5030213;28;20670;-66
2023/04/01 02:43:16;;;;;;;9.20;4.50;;;;;;;10.11;100.00;99589.41;5043704;28;20196;-66
2023/04/01 02:45:42;;;;;;;11.47;4.90;;;;;;;10.10;100.00;99591.94;5030080;28;20799;-66
2023/04/01 02:48:08;;;;;;;8.83;4.27;;;;;;;10.08;100.00;99591.94;5047658;28;20192;-66
2023/04/01 02:50:34;;;;;;;9.73;4.33;;;;;;;10.09;100.00;99591.09;5027958;28;20205;-66
2023/04/01 02:53:00;;;;;;;8.23;4.33;;;;;;;10.10;100.00;99597.06;5047757;28;20201;-66
2023/04/01 02:55:25;;;;;;;12.53;4.90;;;;;;;10.07;100.00;99600.47;5032845;28;20213;-66
2023/04/01 02:57:51;;;;;;;7.00;4.70;;;;;;;10.08;100.00;99601.31;5048654;28;20190;-66
2023/04/01 03:00:16;;;;;;;6.07;4.17;;;;;;;10.05;100.00;99604.72;5034067;28;20205;-66
2023/04/01 03:02:43;;;;;;;7.90;4.50;;;;;;;10.06;100.00;99600.47;5032516;28;20197;-66
2023/04/01 03:05:09;;;;;;;9.63;4.70;;;;;;;10.03;100.00;99602.97;5032515;28;20303;-66
2023/04/01 03:07:35;;;;;;;7.07;4.37;;;;;;;10.03;100.00;99608.09;5033234;28;20197;-65
2023/04/01 03:10:01;;;;;;;8.73;5.30;;;;;;;10.03;100.00;99605.53;5032960;28;20213;-66
2023/04/01 03:12:26;;;;;;;9.60;4.80;;;;;;;10.03;100.00;99606.41;5033532;28;20182;-66
2023/04/01 03:14:52;;;;;;;8.17;4.50;;;;;;;10.03;100.00;99606.41;5031801;28;20585;-66
2023/04/01 03:17:17;;;;;;;10.93;4.53;;;;;;;10.04;100.00;99607.28;5031710;28;20225;-65
2023/04/01 03:19:44;;;;;;;9.67;4.60;;;;;;;10.05;100.00;99607.28;5050645;28;20256;-67
2023/04/01 03:22:11;;;;;;;9.27;4.93;;;;;;;10.03;100.00;99614.06;5033422;28;20659;-66
2023/04/01 03:24:36;;;;;;;7.43;4.67;;;;;;;10.05;100.00;99614.13;5031876;28;20272;-66
2023/04/01 03:27:02;;;;;;;11.40;4.40;;;;;;;9.98;100.00;99612.34;5041947;28;20186;-67
2023/04/01 03:29:27;;;;;;;10.83;5.37;;;;;;;10.00;100.00;99608.13;5028245;28;20205;-65
2023/04/01 03:31:53;;;;;;;9.07;4.97;;;;;;;9.99;100.00;99608.94;5031980;28;20189;-66
2023/04/01 03:34:19;;;;;;;8.80;5.27;;;;;;;9.97;100.00;99613.22;5045589;28;20210;-66
2023/04/01 03:36:44;;;;;;;9.50;4.87;;;;;;;9.96;100.00;99617.47;5030583;28;20218;-66
2023/04/01 03:39:10;;;;;;;7.00;4.90;;;;;;;9.97;100.00;99614.06;5032944;28;20259;-66
2023/04/01 03:41:40;;;;;;;8.43;4.90;;;;;;;9.96;100.00;99614.91;5033059;28;20552;-66
2023/04/01 03:44:06;;;;;;;8.80;5.07;;;;;;;9.96;100.00;99620.00;5031792;28;20229;-65
2023/04/01 03:46:31;;;;;;;10.10;5.13;;;;;;;9.98;100.00;99617.47;5031821;28;20224;-67
2023/04/01 03:48:57;;;;;;;11.40;5.43;;;;;;;9.98;100.00;99626.00;5032713;28;20281;-66
2023/04/01 03:51:22;;;;;;;9.20;4.57;;;;;;;9.98;100.00;99626.00;5032789;28;20203;-66
2023/04/01 03:53:49;;;;;;;8.33;4.83;;;;;;;9.98;100.00;99627.69;5014913;28;20255;-66
2023/04/01 03:56:15;;;;;;;7.93;5.00;;;;;;;9.95;100.00;99628.53;5050062;28;20195;-66
2023/04/01 03:58:40;;;;;;;8.13;5.10;;;;;;;9.95;100.00;99625.16;5032523;28;20194;-66
2023/04/01 04:01:20;;;;;;;8.50;4.40;;;;;;;9.95;100.00;99631.09;5030145;28;20643;-66
2023/04/01 04:03:49;;;;;;;11.57;5.10;;;;;;;9.94;100.00;99631.94;5028086;28;20578;-66
2023/04/01 04:06:17;;;;;;;9.93;4.70;;;;;;;9.96;100.00;99627.69;5031861;28;20615;-66
2023/04/01 04:08:44;;;;;;;8.23;5.40;;;;;;;9.96;100.00;99635.34;5043729;28;20198;-66
2023/04/01 04:11:10;;;;;;;8.23;4.70;;;;;;;9.96;100.00;99637.06;5032098;28;20212;-67
2023/04/01 04:13:38;;;;;;;8.50;4.93;;;;;;;9.98;100.00;99636.22;5031790;28;20682;-67
2023/04/01 04:16:04;;;;;;;8.47;4.90;;;;;;;10.00;100.00;99633.69;5034245;28;20243;-66
2023/04/01 04:18:31;;;;;;;9.97;5.00;;;;;;;9.99;100.00;99640.50;5031946;28;20219;-67
2023/04/01 04:20:56;;;;;;;10.57;5.23;;;;;;;10.00;100.00;99638.78;5032446;28;20186;-66
2023/04/01 04:23:22;;;;;;;9.40;4.67;;;;;;;10.01;100.00;99641.38;5032362;28;20178;-66
2023/04/01 04:25:59;;;;;;;8.17;5.10;;;;;;;10.03;100.00;99641.34;5031646;28;20224;-66
2023/04/01 04:28:27;;;;;;;10.47;5.23;;;;;;;9.99;100.00;99642.19;5030176;28;20251;-65
2023/04/01 04:30:55;;;;;;;5.83;4.43;;;;;;;9.93;100.00;99653.28;5031363;28;20216;-66
2023/04/01 04:33:24;;;;;;;7.30;5.27;;;;;;;9.98;100.00;99643.03;5031795;28;20190;-68
2023/04/01 04:35:50;;;;;;;6.87;4.70;;;;;;;9.99;100.00;99652.41;5020720;28;20198;-68
2023/04/01 04:38:17;;;;;;;11.27;4.67;;;;;;;9.96;100.00;99652.41;5031878;28;20190;-67
2023/04/01 04:40:43;;;;;;;9.57;4.70;;;;;;;9.94;100.00;99656.66;5031601;28;20192;-65
2023/04/01 04:43:15;;;;;;;8.20;5.00;;;;;;;9.96;100.00;99662.66;5031119;28;20232;-65
2023/04/01 04:45:41;;;;;;;8.07;4.93;;;;;;;9.97;100.00;99665.22;5031625;28;20194;-66
2023/04/01 04:48:09;;;;;;;8.23;5.00;;;;;;;9.95;100.00;99672.00;5031704;28;20655;-68
2023/04/01 04:50:35;;;;;;;7.93;5.53;;;;;;;9.94;100.00;99666.88;5014878;28;20273;-67
2023/04/01 04:53:01;;;;;;;9.43;5.83;;;;;;;9.93;100.00;99673.72;5049430;28;20272;-67
2023/04/01 04:55:26;;;;;;;9.07;5.50;;;;;;;9.93;100.00;99672.84;5029205;28;20263;-67
2023/04/01 04:58:12;;;;;;;9.00;5.13;;;;;;;9.95;100.00;99676.28;5032495;28;20682;-68
2023/04/01 05:00:41;;;;;;;8.20;5.00;;;;;;;9.94;100.00;99680.53;5028856;28;20189;-67
2023/04/01 05:03:11;;;;;;;11.93;5.03;;;;;;;9.95;100.00;99677.13;5046886;28;20201;-67
2023/04/01 05:05:38;;;;;;;8.10;5.47;;;;;;;9.94;100.00;99684.78;5047312;28;20235;-67
2023/04/01 05:08:04;;;;;;;11.37;5.73;;;;;;;9.92;100.00;99684.81;5030624;28;20248;-67
2023/04/01 05:10:31;;;;;;;10.40;5.47;;;;;;;9.96;100.00;99689.06;5023843;28;20210;-67
2023/04/01 05:12:56;;;;;;;10.43;5.33;;;;;;;9.97;100.00;99682.25;5031386;28;20194;-68
2023/04/01 05:15:23;;;;;;;9.27;5.20;;;;;;;9.96;100.00;99689.06;5027557;28;20206;-67
2023/04/01 05:17:49;;;;;;;9.27;5.10;;;;;;;9.98;100.00;99692.50;5029494;28;20190;-69
2023/04/01 05:20:15;;;;;;;11.93;6.00;;;;;;;9.99;100.00;99685.66;5029858;28;20213;-68
2023/04/01 05:22:41;;;;;;;8.90;5.30;;;;;;;9.98;100.00;99696.72;5031180;28;20253;-68
2023/04/01 05:25:07;;;;;;;9.77;5.43;;;;;;;9.99;100.00;99694.19;5028763;28;20208;-67
2023/04/01 05:27:33;;;;;;;10.57;6.40;;;;;;;9.97;100.00;99698.47;5030645;28;20186;-67
2023/04/01 05:29:59;;;;;;;9.73;6.00;;;;;;;9.98;100.00;99700.16;5029677;28;20213;-67
2023/04/01 05:32:40;;;;;;;12.63;6.07;;;;;;;10.02;100.00;99701.88;5031209;28;20190;-68
2023/04/01 05:35:06;;;;;;;10.00;5.83;;;;;;;10.05;100.00;99704.47;5031297;28;20210;-66
2023/04/01 05:37:34;;;;;;;10.27;5.23;;;;;;;10.06;100.00;99701.06;5030755;28;20665;-68
2023/04/01 05:39:59;;;;;;;9.63;5.90;;;;;;;10.03;100.00;99707.81;5024315;28;20182;-67
2023/04/01 05:42:25;;;;;;;11.07;6.23;;;;;;;10.07;100.00;99714.69;5030680;28;20720;-68
2023/04/01 05:44:51;;;;;;;11.87;6.00;;;;;;;10.06;100.00;99713.00;5029673;28;20210;-67
2023/04/01 05:47:35;;;;;;;8.93;5.60;;;;;;;10.07;100.00;99710.44;5045703;28;20243;-68
2023/04/01 05:50:00;;;;;;;7.83;5.77;;;;;;;10.06;100.00;99716.41;5028901;28;20825;-66
2023/04/01 05:52:26;;;;;;;9.37;6.10;;;;;;;10.08;100.00;99718.97;5030648;28;20542;-67
2023/04/01 05:54:52;;;;;;;8.30;5.90;;;;;;;10.07;100.00;99720.69;5027836;28;20239;-67
2023/04/01 05:57:17;;;;;;;7.83;5.50;;;;;;;10.02;100.00;99729.16;5027302;28;20201;-66
2023/04/01 05:59:43;;;;;;;5.67;3.40;;;;;;;9.84;100.00;99739.28;5030623;28;20232;-67
2023/04/01 06:02:10;;;;;;;3.00;1.57;;;;;;;9.57;100.00;99749.38;5027286;28;20208;-67
2023/04/01 06:04:38;;;;;;;1.50;1.37;;;;;;;9.36;100.00;99750.09;5013384;28;20221;-66
2023/04/01 06:07:15;;;;;;;1.83;1.20;;;;;;;9.40;100.00;99758.66;5027470;28;20243;-67
2023/04/01 06:09:41;;;;;;;1.60;1.50;;;;;;;9.34;100.00;99748.38;5030021;28;20721;-67
2023/04/01 06:12:33;;;;;;;1.70;1.50;;;;;;;9.25;100.00;99763.66;5027677;28;20221;-66
2023/04/01 06:15:11;;;;;;;3.07;1.73;;;;;;;9.20;100.00;99762.75;5011664;28;20221;-66
2023/04/01 06:17:45;;;;;;;1.47;1.27;;;;;;;9.04;100.00;99768.63;5029781;28;20288;-66
2023/04/01 06:20:36;;;;;;;1.77;1.37;;;;;;;8.94;100.00;99774.50;5027288;28;20700;-66
2023/04/01 06:23:19;;;;;;;1.70;1.60;;;;;;;8.92;100.00;99768.50;5031265;28;20190;-65
2023/04/01 06:26:08;;;;;;;1.50;1.40;;;;;;;8.94;100.00;99780.44;5033802;28;20240;-66
2023/04/01 06:28:45;;;;;;;1.97;1.80;;;;;;;8.74;100.00;99788.75;5031334;28;20240;-67
2023/04/01 06:31:34;;;;;;;1.40;1.30;;;;;;;8.82;100.00;99790.56;5030097;28;20588;-67
2023/04/01 06:34:20;;;;;;;1.87;1.63;;;;;;;8.91;100.00;99800.84;5019234;28;20249;-67
2023/04/01 06:36:47;;;;;;;2.37;1.90;;;;;;;8.85;100.00;99798.22;5026257;28;20622;-67
2023/04/01 06:39:42;;;;;;;1.77;1.67;;;;;;;8.81;100.00;99795.66;5030893;28;20189;-66
2023/04/01 06:42:35;;;;;;;2.93;1.97;;;;;;;8.66;100.00;99798.06;4992617;28;20774;-67
2023/04/01 06:45:25;;;;;;;2.23;2.03;;;;;;;8.62;100.00;99815.00;5042200;28;20212;-66
2023/04/01 06:48:16;;;;;;;1.80;1.70;;;;;;;8.47;100.00;99811.47;5046161;28;20258;-67
2023/04/01 06:51:04;;;;;;;1.70;1.60;;;;;;;8.49;100.00;99809.78;5050628;28;20579;-66
2023/04/01 06:53:51;;;;;;;2.30;1.70;;;;;;;8.42;100.00;99821.59;5048667;28;20228;-66
2023/04/01 06:56:40;;;;;;;2.80;1.83;;;;;;;8.53;100.00;99825.13;5048701;28;20270;-66
2023/04/01 06:59:19;;;;;;;2.33;1.93;;;;;;;8.45;100.00;99831.84;5047433;28;20189;-67
2023/04/01 07:01:51;;;;;;;2.10;1.70;;;;;;;8.52;100.00;99831.06;5042461;28;20611;-67
2023/04/01 07:04:34;;;;;;;1.60;1.30;;;;;;;8.39;100.00;99834.31;5030616;28;20302;-67
2023/04/01 07:07:10;;;;;;;1.30;1.20;;;;;;;8.34;100.00;99847.88;5027166;28;21014;-66
2023/04/01 07:09:51;;;;;;;1.67;1.10;;;;;;;8.28;100.00;99850.31;5034077;28;20686;-66
2023/04/01 07:12:31;;;;;;;1.27;1.10;;;;;;;8.14;100.00;99851.81;5048022;28;20284;-68
2023/04/01 07:15:30;;;;;;;1.30;1.20;;;;;;;8.12;100.00;99861.16;5048059;28;20301;-67
2023/04/01 07:18:02;;;;;;;1.37;1.03;;;;;;;8.06;100.00;99856.81;5035249;28;20251;-68
2023/04/01 07:20:36;;;;;;;1.93;1.23;;;;;;;8.14;100.00;99862.88;5029349;28;20194;-68
2023/04/01 07:23:08;;;;;;;1.30;1.20;;;;;;;8.03;100.00;99867.00;5028671;28;20194;-66
2023/04/01 07:26:06;;;;;;;1.40;1.30;;;;;;;8.19;100.00;99875.66;5049055;28;20237;-68
2023/04/01 07:28:35;;;;;;;1.30;1.00;;;;;;;8.21;100.00;99887.63;5044626;28;20205;-68
2023/04/01 07:31:30;;;;;;;1.37;1.27;;;;;;;8.03;100.00;99892.47;5030194;28;20549;-68
2023/04/01 07:33:59;;;;;;;1.77;1.07;;;;;;;7.99;100.00;99893.28;5030732;28;20213;-66
2023/04/01 07:36:47;;;;;;;1.23;0.97;;;;;;;7.92;100.00;99896.56;5031572;28;20194;-67
2023/04/01 07:39:18;;;;;;;1.13;1.00;;;;;;;7.97;100.00;99900.00;5029068;28;20186;-67
2023/04/01 07:42:13;;;;;;;1.00;0.90;;;;;;;7.91;100.00;99906.72;5019777;28;20225;-67
2023/04/01 07:44:58;;;;;;;1.13;1.00;;;;;;;7.98;100.00;99903.44;5033157;28;20210;-67
2023/04/01 07:47:45;;;;;;;1.20;1.10;;;;;;;7.93;100.00;99920.34;5015558;28;20773;-67
2023/04/01 07:50:18;;;;;;;0.80;0.80;;;;;;;7.91;100.00;99915.22;5046345;28;20220;-67
2023/04/01 07:53:03;;;;;;;1.30;1.10;;;;;;;7.80;100.00;99926.97;5027804;28;20236;-66
2023/04/01 07:55:40;;;;;;;3.77;1.40;;;;;;;7.88;100.00;99925.38;5029006;28;20214;-66
2023/04/01 07:58:18;;;;;;;2.50;1.40;;;;;;;7.94;100.00;99928.03;5026465;28;20288;-68
2023/04/01 08:00:54;;;;;;;1.10;0.80;;;;;;;7.82;100.00;99939.69;5033036;28;20561;-67
2023/04/01 08:03:33;;;;;;;0.80;0.80;;;;;;;7.76;100.00;99945.59;5015403;28;20251;-67
2023/04/01 08:06:25;;;;;;;2.63;1.30;;;;;;;7.84;100.00;99948.25;5015924;28;20198;-67
2023/04/01 08:09:13;;;;;;;1.10;1.00;;;;;;;7.87;100.00;99954.25;5032209;28;20609;-67
2023/04/01 08:12:52;;;;;;;2.50;1.20;;;;;;;7.66;100.00;99963.25;5047882;28;20216;-67
2023/04/01 08:15:48;;;;;;;3.43;1.17;;;;;;;7.61;100.00;99960.59;5020799;28;20730;-67
2023/04/01 08:19:09;;;;;;;1.10;1.07;;;;;;;7.74;100.00;99969.31;5025954;28;20198;-67
2023/04/01 08:21:43;;;;;;;1.30;1.17;;;;;;;7.84;100.00;99976.28;5026274;28;20573;-67
2023/04/01 08:24:42;;;;;;;1.47;1.20;;;;;;;7.85;100.00;99980.53;5032675;28;20213;-68
2023/04/01 08:27:33;;;;;;;1.90;1.00;;;;;;;7.72;100.00;99981.16;5037780;28;20220;-68
2023/04/01 08:30:04;;;;;;;1.50;1.40;;;;;;;7.73;100.00;99987.97;5027705;28;20790;-68
2023/04/01 08:32:39;;;;;;;2.73;1.40;;;;;;;7.70;100.00;99985.38;5028210;28;20194;-68
2023/04/01 08:35:11;;;;;;;1.40;1.30;;;;;;;7.73;100.00;99991.38;5026852;28;20205;-66
2023/04/01 08:37:41;;;;;;;1.20;1.10;;;;;;;7.73;100.00;100005.81;5029334;28;20197;-68
2023/04/01 08:40:33;;;;;;;1.63;1.27;;;;;;;7.73;100.00;99999.03;5028922;28;20193;-67
2023/04/01 08:43:11;;;;;;;1.40;1.30;;;;;;;7.78;100.00;100001.66;5024215;28;20616;-68
2023/04/01 08:45:40;;;;;;;1.30;1.17;;;;;;;7.68;100.00;100007.41;5027833;28;20674;-67
2023/04/01 08:48:27;;;;;;;1.40;1.30;;;;;;;7.66;100.00;100006.53;5029092;28;20357;-67
2023/04/01 08:51:25;;;;;;;1.87;1.43;;;;;;;7.61;100.00;100014.09;5025274;28;20209;-67
2023/04/01 08:54:19;;;;;;;1.23;1.13;;;;;;;7.63;100.00;100009.03;5043958;28;20222;-67
2023/04/01 08:56:57;;;;;;;1.50;1.40;;;;;;;7.56;100.00;100022.50;5027654;28;20270;-67
2023/04/01 08:59:30;;;;;;;1.57;1.13;;;;;;;7.53;100.00;100023.31;5012156;28;20707;-67
2023/04/01 09:02:12;;;;;;;1.03;1.00;;;;;;;7.48;100.00;100031.69;5031418;28;20237;-67
2023/04/01 09:05:26;;;;;;;1.53;1.17;;;;;;;7.48;100.00;100036.78;5029593;28;20209;-68
2023/04/01 09:08:17;;;;;;;2.10;1.10;;;;;;;7.52;100.00;100030.91;5031423;28;20214;-67
2023/04/01 09:10:49;;;;;;;1.00;1.00;;;;;;;7.55;100.00;100036.91;5023876;28;20872;-67
2023/04/01 09:14:10;;;;;;;0.87;0.77;;;;;;;7.65;100.00;100050.69;4973622;28;20228;-68
2023/04/01 09:17:12;;;;;;;1.17;1.07;;;;;;;7.69;100.00;100043.13;5045693;28;20205;-69
2023/04/01 09:20:10;;;;;;;1.40;1.20;;;;;;;7.62;100.00;100051.50;5030541;28;20211;-68
2023/04/01 09:22:42;;;;;;;2.20;1.27;;;;;;;7.66;100.00;100063.47;5011773;28;20208;-68
2023/04/01 09:25:38;;;;;;;1.83;1.00;;;;;;;7.62;100.00;100059.13;5040470;28;20245;-69
2023/04/01 09:28:11;;;;;;;1.10;1.00;;;;;;;7.57;100.00;100063.28;5027944;28;20193;-68
2023/04/01 09:31:12;;;;;;;1.20;1.10;;;;;;;7.65;100.00;100069.38;5023796;28;20214;-68
2023/04/01 09:34:10;;;;;;;1.03;0.93;;;;;;;7.64;100.00;100067.66;5030854;28;20216;-68
2023/04/01 09:37:21;;;;;;;1.57;1.00;;;;;;;7.62;100.00;100074.44;5030533;28;20200;-67
2023/04/01 09:40:19;;;;;;;1.23;1.00;;;;;;;7.62;100.00;100078.66;5023372;28;20192;-68
2023/04/01 09:43:16;;;;;;;1.10;1.00;;;;;;;7.84;100.00;100086.69;5029337;28;20643;-68
2023/04/01 09:46:23;;;;;;;0.97;0.90;;;;;;;7.73;100.00;100090.75;5024257;28;20288;-67
2023/04/01 09:49:17;;;;;;;1.20;1.10;;;;;;;7.59;100.00;100093.88;5007961;28;20204;-67
2023/04/01 09:51:59;;;;;;;0.70;0.70;;;;;;;7.63;100.00;100099.06;5030239;28;20280;-67
2023/04/01 09:54:53;;;;;;;0.97;0.80;;;;;;;7.69;100.00;100099.16;5026954;28;20212;-67
2023/04/01 09:57:34;;;;;;;1.23;0.80;;;;;;;7.83;100.00;100104.53;5027709;28;20198;-67
2023/04/01 10:00:19;;;;;;;0.83;0.70;;;;;;;7.65;100.00;100111.84;5038199;28;20326;-66
2023/04/01 10:02:50;;;;;;;1.27;0.90;;;;;;;7.63;100.00;100109.25;5022083;28;20197;-67
2023/04/01 10:05:56;;;;;;;1.00;0.90;;;;;;;7.74;100.00;100114.56;5019059;28;20210;-66
2023/04/01 10:09:14;;;;;;;1.03;0.90;;;;;;;7.68;100.00;100109.31;5025263;28;20679;-66
2023/04/01 10:11:55;;;;;;;2.33;0.97;;;;;;;7.77;100.00;100124.78;5010594;28;20209;-66
2023/04/01 10:14:52;;;;;;;0.80;0.80;;;;;;;7.63;100.00;100119.44;5020999;28;20234;-66
2023/04/01 10:17:25;;;;;;;1.23;0.87;;;;;;;7.57;100.00;100136.28;5042413;28;20281;-65
2023/04/01 10:20:20;;;;;;;1.13;0.73;;;;;;;7.68;100.00;100129.72;5029455;28;20189;-67
2023/04/01 10:23:11;;;;;;;1.63;1.10;;;;;;;7.68;100.00;100132.25;5026149;28;20200;-66
2023/04/01 10:26:02;;;;;;;0.53;0.50;;;;;;;7.75;100.00;100136.66;5041850;28;20698;-66
2023/04/01 10:28:50;;;;;;;1.40;1.00;;;;;;;7.84;100.00;100152.13;5025030;28;20320;-67
2023/04/01 10:31:42;;;;;;;1.00;0.83;;;;;;;7.83;100.00;100150.41;5022157;28;20225;-68
2023/04/01 10:34:26;;;;;;;0.97;0.87;;;;;;;7.88;100.00;100151.34;5023035;28;20286;-67
2023/04/01 10:36:57;;;;;;;1.27;0.90;;;;;;;7.76;100.00;100153.66;5025796;28;20194;-67
2023/04/01 10:39:48;;;;;;;1.17;0.87;;;;;;;7.67;100.00;100153.47;5025613;28;20186;-68
2023/04/01 10:43:04;;;;;;;1.67;0.80;;;;;;;7.76;100.00;100151.97;4997188;28;20222;-67
2023/04/01 10:46:15;;;;;;;1.43;1.07;;;;;;;7.72;100.00;100156.97;5040614;28;20219;-67
2023/04/01 10:48:47;;;;;;;0.80;0.80;;;;;;;7.84;100.00;100163.16;5027160;28;20220;-68
2023/04/01 10:51:20;;;;;;;1.13;0.70;;;;;;;7.91;100.00;100169.22;5045441;28;20226;-66
2023/04/01 10:54:02;;;;;;;0.77;0.77;;;;;;;8.03;100.00;100161.81;5029100;28;20562;-68
2023/04/01 10:56:48;;;;;;;1.20;0.70;;;;;;;8.22;100.00;100171.53;5039680;28;20197;-66
2023/04/01 10:59:57;;;;;;;0.60;0.60;;;;;;;8.18;100.00;100167.19;5042989;28;20202;-68
2023/04/01 11:03:01;;;;;;;0.70;0.70;;;;;;;8.03;100.00;100179.66;5031340;28;20210;-68
2023/04/01 11:06:03;;;;;;;0.60;0.60;;;;;;;8.04;100.00;100184.78;5045339;28;20254;-68
2023/04/01 11:09:06;;;;;;;0.70;0.70;;;;;;;8.05;100.00;100189.06;5042921;28;20220;-67
2023/04/01 11:11:57;;;;;;;1.93;0.90;;;;;;;8.21;100.00;100197.88;5020488;28;20199;-67
2023/04/01 11:14:47;;;;;;;0.97;0.70;;;;;;;8.21;100.00;100198.72;5036955;28;20232;-67
2023/04/01 11:17:36;;;;;;;0.50;0.50;;;;;;;8.08;100.00;100201.00;5043139;28;20193;-67
2023/04/01 11:20:29;;;;;;;1.93;0.70;;;;;;;8.15;100.00;100203.69;5015833;28;20182;-67
2023/04/01 11:23:03;;;;;;;0.97;0.70;;;;;;;8.29;100.00;100207.38;5027602;28;20274;-67
2023/04/01 11:25:38;;;;;;;1.67;0.70;;;;;;;8.29;100.00;100209.94;5025482;28;20686;-67
2023/04/01 11:28:40;;;;;;;1.30;0.77;;;;;;;8.22;100.00;100213.22;5040591;28;20800;-67
2023/04/01 11:31:29;;;;;;;1.13;1.00;;;;;;;8.28;100.00;100227.75;5040127;28;20217;-68
2023/04/01 11:34:15;;;;;;;1.17;0.90;;;;;;;8.19;100.00;100217.34;5031338;28;20225;-67
2023/04/01 11:37:04;;;;;;;1.47;1.10;;;;;;;8.38;100.00;100225.41;5043983;28;20201;-67
2023/04/01 11:40:00;;;;;;;1.13;1.03;;;;;;;8.13;100.00;100227.44;5027999;28;20329;-64
2023/04/01 11:43:11;;;;;;;1.30;1.20;;;;;;;8.02;100.00;100234.03;5028703;28;20221;-68
2023/04/01 11:46:38;;;;;;;1.13;1.03;;;;;;;7.99;100.00;100242.47;5042534;28;20194;-68
2023/04/01 11:49:13;;;;;;;2.20;1.60;;;;;;;7.91;100.00;100244.00;5029301;28;20194;-67
2023/04/01 11:51:59;;;;;;;1.63;1.53;;;;;;;7.95;100.00;100256.00;5008347;28;20284;-67
2023/04/01 11:54:41;;;;;;;2.40;1.60;;;;;;;7.90;100.00;100254.16;5042793;28;20325;-66
2023/04/01 11:57:29;;;;;;;2.37;1.90;;;;;;;7.77;100.00;100263.25;5041854;28;20193;-65
2023/04/01 12:00:28;;;;;;;1.93;1.53;;;;;;;7.87;100.00;100270.25;5033740;28;20244;-65
2023/04/01 12:03:30;;;;;;;2.60;1.70;;;;;;;7.73;100.00;100273.34;5043259;28;20571;-68
2023/04/01 12:06:16;;;;;;;2.30;1.40;;;;;;;7.88;100.00;100269.44;5041597;28;20634;-65
2023/04/01 12:08:53;;;;;;;4.63;1.70;;;;;;;7.96;100.00;100275.56;5047676;28;20872;-68
2023/04/01 12:11:43;;;;;;;2.77;2.07;;;;;;;7.76;100.00;100278.50;5042495;28;20305;-65
2023/04/01 12:14:39;;;;;;;3.70;2.30;;;;;;;7.75;100.00;100289.53;5028556;28;20217;-66
2023/04/01 12:17:11;;;;;;;3.07;2.63;;;;;;;7.80;100.00;100285.41;5044718;28;20194;-68